^^
Datos históricos de la estación: Murcia-Puente Tocinos
Diario Informe para Enero 24, 2021 Unidades:  Métrico    Ingés   Ambas
Diario Semanal Mensual Anual
  Máxima: Mínima: Promedio:
Temperatura: 22.2 °C 14.6 °C 18 °C
Punto de rocio: 8.4 °C 3.1 °C 6.2 °C
Humedad: 64% 28.6% 47%
Velocidad viento: 24.5km/h 0km/h 10.2km/h
Racha viento: 45.1km/h - -
Viento- - SSO
Presión: 1013.9 hPa 1006.0 hPa -
Precipitación: 0.0 mm    
 
 
Tabla de datos para Enero 24, 2021
Hora Temperatura Punto de rocio Presión Viento Velocidad viento Racha viento Humedad Intensidad lluvia(por hora) Nubes
00:04 18 °C 7.7 °C 1008.2 hPa SSO 22.5 km/h 35.9 km/h 51% 0.0 mm
00:09 18.1 °C 7.8 °C 1008.3 hPa SSO 22.1 km/h 43.9 km/h 51% 0.0 mm
00:14 18.1 °C 7.8 °C 1008.3 hPa SSO 22.1 km/h 45.1 km/h 51% 0.0 mm
00:19 17.8 °C 7.7 °C 1008.3 hPa SSO 20.6 km/h 29.6 km/h 51.4% 0.0 mm
00:24 17.8 °C 7.8 °C 1008.3 hPa SSO 20.1 km/h 29.6 km/h 52% 0.0 mm
00:29 17.7 °C 7.8 °C 1008.1 hPa SSO 17.9 km/h 42.6 km/h 52% 0.0 mm
00:34 17.8 °C 7.8 °C 1008.1 hPa SSO 17.2 km/h 41.8 km/h 52% 0.0 mm
00:39 17.9 °C 7.9 °C 1008.1 hPa SSO 20 km/h 40.2 km/h 52% 0.0 mm
00:44 17.8 °C 7.8 °C 1007.9 hPa SSO 20.9 km/h 37 km/h 52% 0.0 mm
00:49 17.8 °C 7.8 °C 1007.9 hPa SSO 18.5 km/h 32.2 km/h 52% 0.0 mm
00:54 17.8 °C 7.8 °C 1007.9 hPa Sur 18 km/h 35.2 km/h 52% 0.0 mm
00:59 17.9 °C 7.9 °C 1007.8 hPa SSO 16.7 km/h 43.9 km/h 52% 0.0 mm
01:04 17.9 °C 7.9 °C 1007.8 hPa SSO 16.4 km/h 45.1 km/h 52% 0.0 mm
01:09 18 °C 8 °C 1007.8 hPa SSO 20.1 km/h 42.6 km/h 52% 0.0 mm
01:14 17.9 °C 7.9 °C 1007.5 hPa Sur 20.9 km/h 44.3 km/h 52% 0.0 mm
01:19 17.9 °C 7.9 °C 1007.5 hPa SSO 23.8 km/h 45.1 km/h 52% 0.0 mm
01:24 17.9 °C 7.9 °C 1007.5 hPa Sur 24.5 km/h 45.1 km/h 52% 0.0 mm
01:29 17.8 °C 7.9 °C 1007.2 hPa Sur 22.4 km/h 35.9 km/h 52% 0.0 mm
01:34 17.9 °C 7.9 °C 1007.2 hPa SSO 22.1 km/h 35.4 km/h 52% 0.0 mm
01:39 17.8 °C 7.9 °C 1007.2 hPa Sur 19.5 km/h 35.2 km/h 52% 0.0 mm
01:44 17.9 °C 7.9 °C 1007.1 hPa Sur 19 km/h 35.4 km/h 52% 0.0 mm
01:49 18 °C 8 °C 1007.1 hPa SSO 19 km/h 37 km/h 52% 0.0 mm
01:54 18.1 °C 8.1 °C 1007.1 hPa SSO 19 km/h 37 km/h 52% 0.0 mm
01:59 18.2 °C 8.2 °C 1006.9 hPa Sur 20.5 km/h 37 km/h 52% 0.0 mm
02:04 18.2 °C 8.1 °C 1006.9 hPa Sur 20.9 km/h 35.2 km/h 51.8% 0.0 mm
02:09 18.2 °C 8.2 °C 1007.0 hPa SSO 18.8 km/h 35.4 km/h 52% 0.0 mm
02:14 18.2 °C 8.2 °C 1007.0 hPa SSO 18.3 km/h 29.6 km/h 52% 0.0 mm
02:19 18.1 °C 8.1 °C 1007.0 hPa SSO 18.1 km/h 34.3 km/h 52% 0.0 mm
02:24 18.2 °C 8.1 °C 1007.0 hPa SSO 18 km/h 41.2 km/h 52% 0.0 mm
02:29 18.2 °C 8.2 °C 1006.8 hPa SSO 20.4 km/h 41.8 km/h 52% 0.0 mm
02:34 18.3 °C 8.3 °C 1006.8 hPa SSO 20.9 km/h 35.4 km/h 52% 0.0 mm
02:39 18.2 °C 8.2 °C 1006.8 hPa SSO 22.9 km/h 35.4 km/h 52% 0.0 mm
02:44 18.2 °C 8.2 °C 1006.7 hPa Sur 23.3 km/h 34.3 km/h 52% 0.0 mm
02:49 18.2 °C 8.1 °C 1006.7 hPa Sur 19.8 km/h 33.8 km/h 52% 0.0 mm
02:54 18.2 °C 8.2 °C 1006.7 hPa Sur 19 km/h 35.9 km/h 52% 0.0 mm
02:59 18.2 °C 8.2 °C 1006.6 hPa Sur 18.2 km/h 35.4 km/h 52% 0.0 mm
03:04 18.3 °C 8.2 °C 1006.6 hPa SSO 18 km/h 33.8 km/h 52% 0.0 mm
03:09 18.3 °C 8.3 °C 1006.6 hPa SSO 19.4 km/h 34.6 km/h 52% 0.0 mm
03:14 18.3 °C 8.3 °C 1006.5 hPa SSO 19.8 km/h 35.4 km/h 52% 0.0 mm
03:19 18.3 °C 8.2 °C 1006.5 hPa SSO 18.3 km/h 29.6 km/h 52% 0.0 mm
03:24 18.3 °C 8.3 °C 1006.6 hPa SSO 18 km/h 31.5 km/h 52% 0.0 mm
03:29 18.3 °C 8.2 °C 1006.6 hPa SSO 16.5 km/h 32.2 km/h 51.8% 0.0 mm
03:34 18.3 °C 8.3 °C 1006.6 hPa SSO 16.1 km/h 27.4 km/h 52% 0.0 mm
03:39 18.3 °C 8.3 °C 1006.6 hPa SSO 13 km/h 20.9 km/h 52% 0.0 mm
03:44 18.3 °C 8.3 °C 1006.3 hPa SSO 12.2 km/h 27.8 km/h 52% 0.0 mm
03:49 18.4 °C 8.2 °C 1006.3 hPa SSO 12.9 km/h 27.4 km/h 51.4% 0.0 mm
03:54 18.4 °C 8.3 °C 1006.4 hPa SO 13 km/h 24.1 km/h 51.7% 0.0 mm
03:59 18.3 °C 8.3 °C 1006.4 hPa OSO 12.1 km/h 18 km/h 52% 0.0 mm
04:04 18.1 °C 8.1 °C 1006.4 hPa ONO 11.9 km/h 17.7 km/h 52% 0.0 mm
04:09 17.7 °C 8 °C 1006.4 hPa OSO 6.3 km/h 16.4 km/h 53.2% 0.0 mm
04:14 17.4 °C 8.3 °C 1006.3 hPa SSO 5 km/h 20.9 km/h 54.8% 0.0 mm
04:19 17.8 °C 8.4 °C 1006.3 hPa SSO 7.9 km/h 20.9 km/h 54.1% 0.0 mm
04:24 18.1 °C 8.4 °C 1006.3 hPa SSO 8.7 km/h 22.2 km/h 53% 0.0 mm
04:29 18.3 °C 8.3 °C 1006.0 hPa SSO 12.5 km/h 22.5 km/h 52.2% 0.0 mm
04:34 18.4 °C 8.4 °C 1006.0 hPa SO 13.7 km/h 22.5 km/h 52% 0.0 mm
04:39 18.4 °C 8.4 °C 1006.1 hPa SO 11.6 km/h 22.2 km/h 52% 0.0 mm
04:44 18.4 °C 8.4 °C 1006.1 hPa Oeste 11.1 km/h 22.5 km/h 52% 0.0 mm
04:49 18.2 °C 8.2 °C 1006.1 hPa NO 9.2 km/h 16.1 km/h 52.2% 0.0 mm
04:54 17.7 °C 8.1 °C 1006.1 hPa Oeste 8.7 km/h 16.1 km/h 53.4% 0.0 mm
04:59 17.3 °C 8.2 °C 1006.0 hPa ONO 7 km/h 16.7 km/h 55% 0.0 mm
05:04 17.2 °C 8.1 °C 1006.0 hPa NO 6.5 km/h 16.1 km/h 55% 0.0 mm
05:09 16.8 °C 8 °C 1006.2 hPa Oeste 7.4 km/h 11.3 km/h 56% 0.0 mm
05:14 16.5 °C 8 °C 1006.2 hPa NO 7.6 km/h 11.3 km/h 57.1% 0.0 mm
05:19 16.2 °C 7.9 °C 1006.2 hPa NO 6.7 km/h 11.3 km/h 58% 0.0 mm
05:24 15.8 °C 7.8 °C 1006.4 hPa NNO 6.5 km/h 8 km/h 58.9% 0.0 mm
05:29 15.5 °C 7.8 °C 1006.4 hPa North 5.1 km/h 8 km/h 60% 0.0 mm
05:34 15.2 °C 7.8 °C 1006.4 hPa NNE 4.7 km/h 8 km/h 61.1% 0.0 mm
05:39 14.9 °C 7.7 °C 1006.4 hPa Este 3.5 km/h 8 km/h 62% 0.0 mm
05:44 14.7 °C 7.7 °C 1006.3 hPa ENE 3.2 km/h 8 km/h 62.9% 0.0 mm
05:49 14.6 °C 7.9 °C 1006.3 hPa ENE 3.2 km/h 8 km/h 63.9% 0.0 mm
05:54 14.7 °C 7.9 °C 1006.3 hPa NNE 3.2 km/h 4.7 km/h 64% 0.0 mm
05:59 14.8 °C 8 °C 1006.2 hPa Sur 2.4 km/h 6.4 km/h 63.7% 0.0 mm
06:04 14.9 °C 7.9 °C 1006.2 hPa SSE 2.2 km/h 6.4 km/h 63% 0.0 mm
06:06 14.9 °C 7.9 °C 1006.2 hPa Este 2.2 km/h 6.4 km/h 63% 0.0 mm
15:09 21.7 °C 3.3 °C 1010.7 hPa NO 7.6 km/h 18.3 km/h 30% 0.0 mm
15:14 21.6 °C 3.4 °C 1010.7 hPa NO 7.5 km/h 17.7 km/h 30.4% 0.0 mm
15:19 21.7 °C 3.3 °C 1010.7 hPa ONO 9 km/h 16.7 km/h 30% 0.0 mm
15:24 21.6 °C 3.3 °C 1010.9 hPa ONO 9.5 km/h 16.7 km/h 30% 0.0 mm
15:29 21.6 °C 3.3 °C 1010.9 hPa ONO 9.9 km/h 18.5 km/h 30% 0.0 mm
15:34 21.6 °C 3.3 °C 1010.9 hPa ONO 10 km/h 19.3 km/h 30% 0.0 mm
15:39 21.6 °C 3.3 °C 1010.9 hPa ONO 9.6 km/h 17.2 km/h 30% 0.0 mm
15:44 21.7 °C 3.3 °C 1010.8 hPa NO 9.5 km/h 17.7 km/h 30% 0.0 mm
15:49 21.7 °C 3.3 °C 1010.8 hPa NNO 8.6 km/h 17.2 km/h 30% 0.0 mm
15:54 21.6 °C 3.3 °C 1011.0 hPa NNO 8.4 km/h 17.7 km/h 30% 0.0 mm
15:59 21.6 °C 3.3 °C 1011.0 hPa North 7.8 km/h 14.5 km/h 30% 0.0 mm
16:04 21.7 °C 3.3 °C 1011.0 hPa NNE 7.6 km/h 8 km/h 30% 0.0 mm
16:09 21.8 °C 3.4 °C 1011.1 hPa NE 4.4 km/h 8 km/h 30% 0.0 mm
16:14 22 °C 3.5 °C 1011.1 hPa SSE 3.2 km/h 4.8 km/h 29.7% 0.0 mm
16:19 22.2 °C 3.3 °C 1011.1 hPa NNE 2.5 km/h 7.4 km/h 29% 0.0 mm
16:24 22.2 °C 3.1 °C 1011.1 hPa ONO 2.2 km/h 8 km/h 28.6% 0.0 mm
16:29 22.1 °C 3.2 °C 1011.0 hPa North 3 km/h 8 km/h 29% 0.0 mm
16:34 22.1 °C 3.2 °C 1011.0 hPa NO 3.2 km/h 13.7 km/h 29% 0.0 mm
16:39 21.9 °C 3.4 °C 1011.0 hPa NO 5.1 km/h 14.5 km/h 29.7% 0.0 mm
16:44 21.8 °C 3.4 °C 1011.0 hPa NO 5.8 km/h 15.6 km/h 29.9% 0.0 mm
16:49 21.7 °C 3.3 °C 1011.0 hPa NNO 6.6 km/h 16.1 km/h 30% 0.0 mm
16:54 21.6 °C 3.3 °C 1011.1 hPa NNE 6.9 km/h 12.9 km/h 30% 0.0 mm
16:59 21.5 °C 5.1 °C 1011.1 hPa ESE 5.2 km/h 13 km/h 34.4% 0.0 mm
17:04 21.3 °C 5.7 °C 1011.1 hPa SE 4.6 km/h 13 km/h 36.2% 0.0 mm
17:09 21.1 °C 5.8 °C 1011.2 hPa SE 7.4 km/h 12.9 km/h 36.9% 0.0 mm
17:14 21.1 °C 5.3 °C 1011.2 hPa ESE 8.4 km/h 9.3 km/h 35.8% 0.0 mm
17:19 21.1 °C 5 °C 1011.2 hPa ESE 7 km/h 9.7 km/h 35.1% 0.0 mm
17:24 21.1 °C 4.9 °C 1011.3 hPa SE 6.5 km/h 10 km/h 34.6% 0.0 mm
17:29 21 °C 5.9 °C 1011.3 hPa ESE 5.3 km/h 11.1 km/h 37.4% 0.0 mm
17:34 20.6 °C 6.5 °C 1011.3 hPa ESE 5 km/h 14 km/h 39.9% 0.0 mm
17:39 20.3 °C 6.7 °C 1011.3 hPa ESE 6.7 km/h 14.8 km/h 41.4% 0.0 mm
17:44 19.8 °C 6.8 °C 1011.3 hPa ESE 7.6 km/h 13.7 km/h 42.7% 0.0 mm
17:49 19.6 °C 6.7 °C 1011.3 hPa ESE 8.2 km/h 14.5 km/h 43.3% 0.0 mm
17:54 19.3 °C 6.8 °C 1011.4 hPa Este 8.4 km/h 12.9 km/h 44% 0.0 mm
17:59 19.2 °C 6.7 °C 1011.4 hPa Este 5.6 km/h 9.7 km/h 44% 0.0 mm
18:04 19.2 °C 6.7 °C 1011.4 hPa NE 4.7 km/h 8 km/h 44.2% 0.0 mm
18:09 18.9 °C 6.8 °C 1011.6 hPa ESE 4.7 km/h 11.9 km/h 45.1% 0.0 mm
18:14 18.6 °C 6.8 °C 1011.6 hPa ESE 4.7 km/h 13.7 km/h 46% 0.0 mm
18:19 18.3 °C 6.8 °C 1011.6 hPa ESE 6.8 km/h 14.5 km/h 47% 0.0 mm
18:24 18.1 °C 6.8 °C 1011.7 hPa Este 7.6 km/h 13 km/h 47.7% 0.0 mm
18:29 17.8 °C 6.6 °C 1011.7 hPa ESE 8.4 km/h 13.7 km/h 48% 0.0 mm
18:34 17.7 °C 6.6 °C 1011.7 hPa ESE 8.7 km/h 14.8 km/h 48.2% 0.0 mm
18:39 17.6 °C 6.8 °C 1012.0 hPa SE 7.8 km/h 14.8 km/h 49% 0.0 mm
18:44 17.4 °C 6.6 °C 1012.0 hPa SE 7.6 km/h 14.8 km/h 49% 0.0 mm
18:49 17.4 °C 6.4 °C 1012.0 hPa Este 7.6 km/h 14.8 km/h 48.5% 0.0 mm
18:54 17.4 °C 6.3 °C 1012.0 hPa ESE 7.6 km/h 12.9 km/h 48% 0.0 mm
18:59 17.5 °C 6.2 °C 1012.0 hPa ESE 6.2 km/h 11.3 km/h 47.3% 0.0 mm
19:04 17.5 °C 6.3 °C 1012.0 hPa NO 5.8 km/h 9.7 km/h 47.8% 0.0 mm
19:09 17.4 °C 6.1 °C 1012.2 hPa NNO 4.3 km/h 10 km/h 47.6% 0.0 mm
19:14 17.3 °C 6.4 °C 1012.2 hPa NE 3.9 km/h 13 km/h 48.6% 0.0 mm
19:19 17.2 °C 6.3 °C 1012.2 hPa NE 5.4 km/h 12.9 km/h 49% 0.0 mm
19:24 17.1 °C 6.1 °C 1012.4 hPa NNE 5.8 km/h 13 km/h 48.5% 0.0 mm
19:29 17.1 °C 5.6 °C 1012.4 hPa NNO 6.2 km/h 19 km/h 46.7% 0.0 mm
19:34 17.3 °C 5 °C 1012.4 hPa NNO 6.5 km/h 19.3 km/h 44.4% 0.0 mm
19:39 17.3 °C 5.2 °C 1012.6 hPa NO 8 km/h 19.3 km/h 45% 0.0 mm
19:44 17.3 °C 5.2 °C 1012.6 hPa ONO 8.4 km/h 12.9 km/h 44.8% 0.0 mm
19:49 17.2 °C 4.7 °C 1012.6 hPa Oeste 6.9 km/h 17.2 km/h 43.6% 0.0 mm
19:54 17.1 °C 4.3 °C 1012.8 hPa ONO 6.5 km/h 19 km/h 42.8% 0.0 mm
19:59 17.1 °C 4.4 °C 1012.8 hPa Oeste 8.9 km/h 19.3 km/h 43% 0.0 mm
20:04 17 °C 4.4 °C 1012.8 hPa OSO 9.5 km/h 14.5 km/h 43.4% 0.0 mm
20:09 16.8 °C 4.9 °C 1013.0 hPa OSO 8 km/h 14.5 km/h 45% 0.0 mm
20:14 16.8 °C 5.3 °C 1013.0 hPa SO 7.6 km/h 12.9 km/h 46.5% 0.0 mm
20:19 16.7 °C 5.9 °C 1013.0 hPa SSO 7.1 km/h 11.1 km/h 48.9% 0.0 mm
20:24 16.7 °C 6.1 °C 1013.2 hPa SO 6.9 km/h 17.2 km/h 49.6% 0.0 mm
20:29 16.8 °C 5.8 °C 1013.2 hPa SO 8 km/h 17.7 km/h 48.2% 0.0 mm
20:34 17 °C 6 °C 1013.2 hPa SSO 8.4 km/h 16.7 km/h 48.3% 0.0 mm
20:39 17.1 °C 5.5 °C 1013.4 hPa SO 8.4 km/h 16.1 km/h 46.5% 0.0 mm
20:44 17.2 °C 5.2 °C 1013.4 hPa SSO 8.4 km/h 11.3 km/h 45% 0.0 mm
20:49 17.2 °C 4.9 °C 1013.4 hPa SO 7.3 km/h 16.1 km/h 44.1% 0.0 mm
20:54 17.2 °C 4.8 °C 1013.5 hPa OSO 6.9 km/h 16.7 km/h 43.8% 0.0 mm
20:59 17.2 °C 4.7 °C 1013.5 hPa SO 6.6 km/h 12.9 km/h 43.7% 0.0 mm
21:04 17 °C 4.7 °C 1013.5 hPa OSO 6.5 km/h 13.7 km/h 44% 0.0 mm
21:09 16.8 °C 4.7 °C 1013.5 hPa OSO 7.3 km/h 14.8 km/h 44.7% 0.0 mm
21:14 16.7 °C 4.7 °C 1013.5 hPa OSO 7.6 km/h 16.7 km/h 45% 0.0 mm
21:19 16.5 °C 4.8 °C 1013.5 hPa OSO 8.4 km/h 16.1 km/h 45.9% 0.0 mm
21:24 16.3 °C 4.7 °C 1013.5 hPa OSO 8.7 km/h 14.8 km/h 46.1% 0.0 mm
21:29 16.3 °C 4.9 °C 1013.5 hPa Oeste 9.3 km/h 14.8 km/h 46.9% 0.0 mm
21:34 16.2 °C 4.6 °C 1013.5 hPa Oeste 9.5 km/h 18.5 km/h 46.1% 0.0 mm
21:39 16.3 °C 4.7 °C 1013.5 hPa Oeste 9.9 km/h 19.8 km/h 46% 0.0 mm
21:44 16.4 °C 4.7 °C 1013.5 hPa Oeste 10 km/h 20.9 km/h 46% 0.0 mm
21:49 16.4 °C 4.7 °C 1013.5 hPa Oeste 9.6 km/h 20.9 km/h 46% 0.0 mm
21:54 16.4 °C 4.7 °C 1013.5 hPa Oeste 9.5 km/h 15.6 km/h 46% 0.0 mm
21:59 16.4 °C 4.7 °C 1013.4 hPa Oeste 8.7 km/h 18.5 km/h 46% 0.0 mm
22:04 16.4 °C 4.7 °C 1013.4 hPa Oeste 8.4 km/h 20.4 km/h 46% 0.0 mm
22:09 16.4 °C 4.7 °C 1013.4 hPa Oeste 12.3 km/h 25.9 km/h 46% 0.0 mm
22:14 16.4 °C 4.6 °C 1013.2 hPa Oeste 13.7 km/h 29.8 km/h 45.5% 0.0 mm
22:19 16.6 °C 4.6 °C 1013.2 hPa Oeste 15.8 km/h 30.6 km/h 45% 0.0 mm
22:24 16.6 °C 4.6 °C 1013.3 hPa Oeste 16.4 km/h 25.7 km/h 45% 0.0 mm
22:29 16.6 °C 4.6 °C 1013.3 hPa OSO 12.9 km/h 20.9 km/h 45% 0.0 mm
22:34 16.6 °C 4.6 °C 1013.3 hPa OSO 11.9 km/h 19.3 km/h 45% 0.0 mm
22:39 16.5 °C 4.5 °C 1013.5 hPa Oeste 6.8 km/h 11.1 km/h 45% 0.0 mm
22:44 16.5 °C 4.5 °C 1013.5 hPa Oeste 5 km/h 11.3 km/h 45% 0.0 mm
22:49 16.5 °C 4.5 °C 1013.5 hPa Oeste 5.6 km/h 11.3 km/h 45% 0.0 mm
22:54 16.5 °C 4.5 °C 1013.5 hPa Oeste 5.8 km/h 10 km/h 45% 0.0 mm
22:59 16.6 °C 4.3 °C 1013.5 hPa Oeste 5.2 km/h 9.7 km/h 44.1% 0.0 mm
23:04 16.6 °C 4.3 °C 1013.5 hPa Oeste 5 km/h 8 km/h 44.1% 0.0 mm
23:09 16.6 °C 4.4 °C 1013.7 hPa NO 4.1 km/h 8 km/h 44.5% 0.0 mm
23:14 16.6 °C 4.4 °C 1013.7 hPa NO 3.9 km/h 4.8 km/h 44.6% 0.0 mm
23:19 16.4 °C 4.5 °C 1013.7 hPa NO 0.9 km/h 4.7 km/h 45% 0.0 mm
23:24 16.4 °C 4.5 °C 1013.8 hPa Calm   7.4 km/h 45.3% 0.0 mm
23:29 16.3 °C 4.7 °C 1013.8 hPa SSO 2.4 km/h 8.7 km/h 46% 0.0 mm
23:34 16.2 °C 4.5 °C 1013.8 hPa SO 3.2 km/h 9.7 km/h 46.1% 0.0 mm
23:39 16.1 °C 4.7 °C 1013.8 hPa SSO 5.2 km/h 9.7 km/h 47% 0.0 mm
23:44 15.9 °C 4.6 °C 1013.8 hPa SSO 5.8 km/h 10 km/h 47% 0.0 mm
23:49 15.9 °C 4.6 °C 1013.8 hPa SSO 6.3 km/h 11.1 km/h 47% 0.0 mm
23:54 15.8 °C 4.5 °C 1013.9 hPa SSO 6.5 km/h 11.3 km/h 47% 0.0 mm
23:59 15.8 °C 4.5 °C 1013.9 hPa SO 6 km/h 8 km/h 47% 0.0 mm
Murcia-Puente Tocinos, España
Compliments of Weather Underground - 2.75 mb

La estación de MeteoMurcia.com, publica sus datos en los siguientes proyectos:

Weather Underground PWS IMURCIAP2 Meteoclimatic www.awekas.at

W3Counter
Web Analytics